createdAt,value
2023-01-27T00:02:00.144Z,102093.16
2023-01-27T00:04:30.016Z,102101.91
2023-01-27T00:06:58.474Z,102109.09
2023-01-27T00:09:26.812Z,102100.50
2023-01-27T00:12:14.033Z,102106.59
2023-01-27T00:14:42.418Z,102113.69
2023-01-27T00:17:10.792Z,102108.59
2023-01-27T00:19:39.141Z,102114.78
2023-01-27T00:22:24.977Z,102113.16
2023-01-27T00:24:53.437Z,102117.31
2023-01-27T00:27:24.092Z,102120.84
2023-01-27T00:29:54.001Z,102120.16
2023-01-27T00:32:39.507Z,102127.38
2023-01-27T00:35:08.676Z,102120.25
2023-01-27T00:37:37.073Z,102131.09
2023-01-27T00:40:06.305Z,102131.09
2023-01-27T00:42:36.479Z,102129.34
2023-01-27T00:45:37.518Z,102125.81
2023-01-27T00:48:06.665Z,102125.97
2023-01-27T00:50:35.013Z,102140.16
2023-01-27T00:53:03.661Z,102149.09
2023-01-27T00:55:32.072Z,102153.59
2023-01-27T00:58:01.818Z,102151.81
2023-01-27T01:00:30.508Z,102148.28
2023-01-27T01:02:58.807Z,102148.38
2023-01-27T01:05:27.152Z,102158.94
2023-01-27T01:07:55.516Z,102154.72
2023-01-27T01:10:24.530Z,102175.91
2023-01-27T01:12:52.906Z,102168.00
2023-01-27T01:15:22.825Z,102174.41
2023-01-27T01:17:52.561Z,102180.78
2023-01-27T01:20:20.947Z,102189.72
2023-01-27T01:22:49.588Z,102184.47
2023-01-27T01:25:18.263Z,102183.66
2023-01-27T01:27:46.821Z,102197.72
2023-01-27T01:30:15.842Z,102197.00
2023-01-27T01:32:45.669Z,102204.88
2023-01-27T01:35:15.382Z,102211.91
2023-01-27T01:37:43.761Z,102195.06
2023-01-27T01:40:14.325Z,102196.00
2023-01-27T01:42:59.184Z,102193.47
2023-01-27T01:45:50.638Z,102194.16
2023-01-27T01:48:30.742Z,102198.59
2023-01-27T01:51:08.507Z,102209.22
2023-01-27T01:53:44.845Z,102200.53
2023-01-27T01:56:22.796Z,102203.00
2023-01-27T01:58:52.396Z,102204.78
2023-01-27T02:01:20.864Z,102211.94
2023-01-27T02:04:00.290Z,102216.16
2023-01-27T02:06:30.021Z,102216.16
2023-01-27T02:08:58.814Z,102212.69
2023-01-27T02:11:27.453Z,102215.44
2023-01-27T02:13:55.801Z,102209.28
2023-01-27T02:16:25.163Z,102224.25
2023-01-27T02:18:54.996Z,102232.09
2023-01-27T02:21:23.473Z,102225.88
2023-01-27T02:24:02.222Z,102234.97
2023-01-27T02:26:37.200Z,102240.34
2023-01-27T02:29:09.159Z,102249.91
2023-01-27T02:31:37.682Z,102237.69
2023-01-27T02:34:12.048Z,102226.97
2023-01-27T02:36:47.872Z,102235.94
2023-01-27T02:39:19.656Z,102235.94
2023-01-27T02:41:53.056Z,102242.22
2023-01-27T02:44:21.884Z,102246.59
2023-01-27T02:46:50.273Z,102256.28
2023-01-27T02:49:19.458Z,102257.34
2023-01-27T02:51:47.917Z,102260.00
2023-01-27T02:54:18.142Z,102257.53
2023-01-27T02:56:46.619Z,102266.34
2023-01-27T02:59:16.847Z,102260.06
2023-01-27T03:01:45.216Z,102259.09
2023-01-27T03:04:15.871Z,102266.53
2023-01-27T03:06:44.447Z,102262.97
2023-01-27T03:09:12.829Z,102272.53
2023-01-27T03:11:58.811Z,102273.47
2023-01-27T03:14:46.948Z,102276.16
2023-01-27T03:17:33.074Z,102263.78
2023-01-27T03:20:01.395Z,102278.00
2023-01-27T03:22:29.954Z,102278.81
2023-01-27T03:24:58.294Z,102279.72
2023-01-27T03:27:26.763Z,102286.94
2023-01-27T03:29:56.450Z,102286.97
2023-01-27T03:32:25.774Z,102292.25
2023-01-27T03:34:54.440Z,102297.53
2023-01-27T03:37:40.477Z,102297.69
2023-01-27T03:40:29.218Z,102301.22
2023-01-27T03:43:15.610Z,102303.97
2023-01-27T03:46:09.769Z,102300.47
2023-01-27T03:48:38.991Z,102297.88
2023-01-27T03:51:11.307Z,102306.72
2023-01-27T03:53:40.001Z,102311.06
2023-01-27T03:56:09.191Z,102311.13
2023-01-27T03:58:39.185Z,102310.31
2023-01-27T04:01:15.488Z,102297.81
2023-01-27T04:04:02.528Z,102302.28
2023-01-27T04:06:51.231Z,102313.88
2023-01-27T04:09:23.593Z,102313.88
2023-01-27T04:12:02.108Z,102305.00
2023-01-27T04:14:34.070Z,102308.66
2023-01-27T04:17:06.469Z,102309.38
2023-01-27T04:19:35.331Z,102313.94
2023-01-27T04:22:05.124Z,102310.44
2023-01-27T04:24:34.634Z,102313.94
2023-01-27T04:27:06.861Z,102315.75
2023-01-27T04:29:38.040Z,102317.59
2023-01-27T04:32:10.492Z,102319.41
2023-01-27T04:34:40.099Z,102329.25
2023-01-27T04:37:10.528Z,102325.69
2023-01-27T04:39:39.144Z,102330.09
2023-01-27T04:42:07.556Z,102333.50
2023-01-27T04:44:36.130Z,102339.75
2023-01-27T04:47:04.602Z,102342.25
2023-01-27T04:49:34.278Z,102358.25
2023-01-27T04:52:02.583Z,102345.91
2023-01-27T04:54:31.182Z,102347.69
2023-01-27T04:57:03.995Z,102342.34
2023-01-27T04:59:32.673Z,102351.22
2023-01-27T05:02:01.434Z,102341.59
2023-01-27T05:04:35.510Z,102345.88
2023-01-27T05:07:06.150Z,102346.69
2023-01-27T05:09:39.219Z,102350.16
2023-01-27T05:12:22.962Z,102345.88
2023-01-27T05:14:57.088Z,102340.31
2023-01-27T05:17:41.859Z,102347.47
2023-01-27T05:20:15.397Z,102347.31
2023-01-27T05:22:47.659Z,102344.72
2023-01-27T05:25:19.042Z,102349.28
2023-01-27T05:27:52.135Z,102351.09
2023-01-27T05:30:27.589Z,102348.31
2023-01-27T05:32:56.752Z,102351.03
2023-01-27T05:35:28.723Z,102347.66
2023-01-27T05:38:05.080Z,102358.91
2023-01-27T05:40:37.308Z,102358.09
2023-01-27T05:43:06.717Z,102351.97
2023-01-27T05:45:36.116Z,102367.09
2023-01-27T05:48:07.807Z,102356.38
2023-01-27T05:50:38.948Z,102365.38
2023-01-27T05:53:13.518Z,102367.25
2023-01-27T05:55:45.175Z,102365.41
2023-01-27T05:58:13.876Z,102376.09
2023-01-27T06:00:42.807Z,102384.97
2023-01-27T06:03:12.353Z,102375.25
2023-01-27T06:05:56.189Z,102379.72
2023-01-27T06:08:26.845Z,102387.63
2023-01-27T06:10:56.398Z,102377.19
2023-01-27T06:13:25.908Z,102379.84
2023-01-27T06:15:56.182Z,102384.41
2023-01-27T06:18:25.988Z,102382.75
2023-01-27T06:20:59.925Z,102391.56
2023-01-27T06:23:29.480Z,102389.78
2023-01-27T06:26:02.238Z,102391.56
2023-01-27T06:28:31.306Z,102390.69
2023-01-27T06:31:07.739Z,102394.31
2023-01-27T06:33:37.174Z,102399.63
2023-01-27T06:36:10.579Z,102404.09
2023-01-27T06:38:39.396Z,102401.47
2023-01-27T06:41:08.664Z,102405.84
2023-01-27T06:43:37.416Z,102418.31
2023-01-27T06:46:06.531Z,102419.16
2023-01-27T06:48:35.783Z,102423.63
2023-01-27T06:51:04.862Z,102427.13
2023-01-27T06:53:35.716Z,102421.69
2023-01-27T06:56:04.208Z,102422.69
2023-01-27T06:58:39.021Z,102426.19
2023-01-27T07:01:08.163Z,102429.69
2023-01-27T07:03:36.610Z,102423.38
2023-01-27T07:06:06.016Z,102429.69
2023-01-27T07:08:36.047Z,102435.88
2023-01-27T07:11:05.974Z,102443.84
2023-01-27T07:13:34.395Z,102451.72
2023-01-27T07:16:02.859Z,102447.22
2023-01-27T07:18:31.527Z,102455.22
2023-01-27T07:21:00.937Z,102452.66
2023-01-27T07:23:29.790Z,102453.59
2023-01-27T07:26:04.320Z,102458.00
2023-01-27T07:28:34.971Z,102461.56
2023-01-27T07:31:04.660Z,102460.66
2023-01-27T07:33:33.109Z,102462.41
2023-01-27T07:36:01.686Z,102457.78
2023-01-27T07:38:30.107Z,102461.38
2023-01-27T07:40:59.905Z,102452.44
2023-01-27T07:43:28.162Z,102455.94
2023-01-27T07:45:57.623Z,102454.19
2023-01-27T07:48:26.165Z,102459.63
2023-01-27T07:50:55.149Z,102452.56
2023-01-27T07:53:30.579Z,102458.53
2023-01-27T07:56:04.699Z,102461.13
2023-01-27T07:58:36.750Z,102461.25
2023-01-27T08:01:09.050Z,102460.44
2023-01-27T08:03:39.440Z,102464.03
2023-01-27T08:06:12.875Z,102465.66
2023-01-27T08:08:43.439Z,102467.38
2023-01-27T08:11:20.159Z,102465.66
2023-01-27T08:13:49.973Z,102468.31
2023-01-27T08:16:22.898Z,102485.91
2023-01-27T08:18:53.916Z,102481.63
2023-01-27T08:21:25.547Z,102480.66
2023-01-27T08:23:56.054Z,102478.09
2023-01-27T08:26:27.106Z,102484.22
2023-01-27T08:28:58.048Z,102483.25
2023-01-27T08:31:29.683Z,102482.41
2023-01-27T08:33:59.586Z,102485.91
2023-01-27T08:36:30.030Z,102492.88
2023-01-27T08:39:01.169Z,102492.97
2023-01-27T08:41:34.060Z,102504.44
2023-01-27T08:44:04.388Z,102502.56
2023-01-27T08:46:33.558Z,102501.72
2023-01-27T08:49:04.220Z,102499.94
2023-01-27T08:51:37.682Z,102507.78
2023-01-27T08:54:10.683Z,102506.91
2023-01-27T08:56:42.053Z,102511.41
2023-01-27T08:59:11.319Z,102504.25
2023-01-27T09:01:43.897Z,102506.13
2023-01-27T09:04:12.820Z,102507.03
2023-01-27T09:06:42.415Z,102506.19
2023-01-27T09:09:12.387Z,102514.97
2023-01-27T09:11:47.855Z,102509.69
2023-01-27T09:14:19.414Z,102517.38
2023-01-27T09:16:48.746Z,102516.53
2023-01-27T09:19:19.861Z,102515.44
2023-01-27T09:21:49.548Z,102520.56
2023-01-27T09:24:19.529Z,102516.88
2023-01-27T09:26:50.452Z,102531.97
2023-01-27T09:29:21.170Z,102520.44
2023-01-27T09:31:50.004Z,102527.22
2023-01-27T09:34:19.899Z,102514.00
2023-01-27T09:36:56.039Z,102519.94
2023-01-27T09:39:25.866Z,102521.19
2023-01-27T09:42:29.061Z,102513.41
2023-01-27T09:45:25.591Z,102526.88
2023-01-27T09:48:18.966Z,102528.16
2023-01-27T09:50:56.429Z,102523.06
2023-01-27T09:54:12.691Z,102521.84
2023-01-27T09:56:54.865Z,102530.38
2023-01-27T09:59:55.188Z,102533.78
2023-01-27T10:03:01.158Z,102536.72
2023-01-27T10:06:05.515Z,102535.81
2023-01-27T10:09:07.720Z,102535.22
2023-01-27T10:11:52.709Z,102536.56
2023-01-27T10:14:41.180Z,102523.81
2023-01-27T10:17:32.384Z,102520.56
2023-01-27T10:20:30.731Z,102527.97
2023-01-27T10:23:18.567Z,102515.78
2023-01-27T10:26:03.072Z,102518.31
2023-01-27T10:28:35.840Z,102507.94
2023-01-27T10:31:14.789Z,102514.75
2023-01-27T10:33:53.611Z,102506.69
2023-01-27T10:36:30.028Z,102501.44
2023-01-27T10:39:18.287Z,102499.34
2023-01-27T10:42:00.653Z,102496.53
2023-01-27T10:44:59.911Z,102501.47
2023-01-27T10:47:52.635Z,102488.38
2023-01-27T10:50:28.650Z,102497.81
2023-01-27T10:53:06.516Z,102491.59
2023-01-27T10:55:44.102Z,102499.94
2023-01-27T10:58:21.963Z,102489.81
2023-01-27T11:01:19.931Z,102485.06
2023-01-27T11:03:57.565Z,102495.22
2023-01-27T11:06:35.312Z,102494.19
2023-01-27T11:09:17.166Z,102478.94
2023-01-27T11:11:47.412Z,102485.31
2023-01-27T11:14:27.562Z,102481.41
2023-01-27T11:17:04.998Z,102480.34
2023-01-27T11:19:46.877Z,102481.59
2023-01-27T11:22:26.272Z,102470.78
2023-01-27T11:25:07.133Z,102478.22
2023-01-27T11:27:59.168Z,102476.03
2023-01-27T11:30:38.473Z,102483.84
2023-01-27T11:33:19.957Z,102477.56
2023-01-27T11:35:56.257Z,102486.75
2023-01-27T11:38:26.008Z,102487.41
2023-01-27T11:40:56.339Z,102476.03
2023-01-27T11:43:29.571Z,102477.41
2023-01-27T11:46:05.316Z,102481.97
2023-01-27T11:48:43.829Z,102464.41
2023-01-27T11:51:21.598Z,102461.16
2023-01-27T11:54:03.499Z,102471.59
2023-01-27T11:56:34.637Z,102475.16
2023-01-27T11:59:09.665Z,102474.19
2023-01-27T12:01:48.345Z,102473.34
2023-01-27T12:04:26.043Z,102473.84
2023-01-27T12:07:04.274Z,102475.22
2023-01-27T12:09:36.447Z,102484.41
2023-01-27T12:12:21.932Z,102491.59
2023-01-27T12:14:54.226Z,102483.56
2023-01-27T12:17:33.459Z,102495.69
2023-01-27T12:20:08.403Z,102487.38
2023-01-27T12:22:41.540Z,102489.66
2023-01-27T12:25:29.115Z,102476.84
2023-01-27T12:28:02.544Z,102472.91
2023-01-27T12:30:36.186Z,102474.06
2023-01-27T12:33:22.168Z,102479.06
2023-01-27T12:35:52.187Z,102471.09
2023-01-27T12:38:26.143Z,102460.38
2023-01-27T12:41:02.318Z,102454.72
2023-01-27T12:43:30.716Z,102455.19
2023-01-27T12:46:19.249Z,102449.78
2023-01-27T12:48:51.461Z,102460.06
2023-01-27T12:51:23.404Z,102463.03
2023-01-27T12:54:21.934Z,102460.78
2023-01-27T12:56:52.243Z,102460.84
2023-01-27T12:59:24.201Z,102467.53
2023-01-27T13:02:16.838Z,102473.53
2023-01-27T13:04:52.775Z,102471.91
2023-01-27T13:07:27.060Z,102473.63
2023-01-27T13:10:03.305Z,102475.84
2023-01-27T13:12:51.890Z,102475.19
2023-01-27T13:15:23.009Z,102465.97
2023-01-27T13:17:53.648Z,102459.94
2023-01-27T13:20:27.275Z,102448.25
2023-01-27T13:23:03.129Z,102437.94
2023-01-27T13:25:40.742Z,102435.84
2023-01-27T13:28:16.593Z,102440.16
2023-01-27T13:30:52.615Z,102436.59
2023-01-27T13:33:35.599Z,102434.81
2023-01-27T13:36:13.546Z,102432.44
2023-01-27T13:38:53.762Z,102437.78
2023-01-27T13:41:37.244Z,102427.09
2023-01-27T13:44:18.655Z,102426.38
2023-01-27T13:46:50.805Z,102414.63
2023-01-27T13:49:37.503Z,102429.75
2023-01-27T13:52:08.535Z,102426.84
2023-01-27T13:54:36.953Z,102427.31
2023-01-27T13:57:49.010Z,102426.59
2023-01-27T14:00:27.501Z,102421.31
2023-01-27T14:04:02.153Z,102428.75
2023-01-27T14:06:51.196Z,102438.16
2023-01-27T14:09:41.618Z,102445.13
2023-01-27T14:12:32.335Z,102452.44
2023-01-27T14:15:11.668Z,102453.53
2023-01-27T14:17:49.293Z,102451.16
2023-01-27T14:20:51.440Z,102469.94
2023-01-27T14:23:41.448Z,102465.53
2023-01-27T14:26:45.594Z,102469.13
2023-01-27T14:29:32.832Z,102475.34
2023-01-27T14:32:17.516Z,102480.00
2023-01-27T14:35:18.048Z,102472.63
2023-01-27T14:38:03.798Z,102477.56
2023-01-27T14:40:39.667Z,102463.69
2023-01-27T14:43:25.799Z,102469.13
2023-01-27T14:46:11.985Z,102474.31
2023-01-27T14:48:54.645Z,102476.31
2023-01-27T14:51:36.154Z,102484.22
2023-01-27T14:54:28.761Z,102481.28
2023-01-27T14:57:27.041Z,102487.84
2023-01-27T15:00:14.874Z,102482.25
2023-01-27T15:02:53.318Z,102487.69
2023-01-27T15:05:29.458Z,102493.00
2023-01-27T15:08:10.579Z,102486.69
2023-01-27T15:10:51.267Z,102489.59
2023-01-27T15:13:57.373Z,102498.78
2023-01-27T15:17:06.383Z,102488.41
2023-01-27T15:20:12.613Z,102498.25
2023-01-27T15:22:59.448Z,102497.66
2023-01-27T15:25:36.048Z,102512.88
2023-01-27T15:28:06.032Z,102506.59
2023-01-27T15:30:38.559Z,102517.19
2023-01-27T15:33:47.405Z,102521.72
2023-01-27T15:36:32.249Z,102521.81
2023-01-27T15:39:21.812Z,102517.31
2023-01-27T15:42:12.587Z,102525.25
2023-01-27T15:45:01.540Z,102521.13
2023-01-27T15:47:35.291Z,102525.97
2023-01-27T15:50:18.582Z,102532.53
2023-01-27T15:52:51.234Z,102536.53
2023-01-27T15:55:30.282Z,102537.69
2023-01-27T15:58:29.824Z,102544.78
2023-01-27T16:01:02.788Z,102540.41
2023-01-27T16:03:35.343Z,102538.78
2023-01-27T16:06:09.875Z,102544.00
2023-01-27T16:08:49.202Z,102542.25
2023-01-27T16:11:39.801Z,102551.94
2023-01-27T16:14:39.380Z,102545.69
2023-01-27T16:17:26.986Z,102550.97
2023-01-27T16:20:13.662Z,102551.03
2023-01-27T16:22:45.470Z,102550.09
2023-01-27T16:25:29.520Z,102552.75
2023-01-27T16:28:08.257Z,102548.34
2023-01-27T16:30:48.193Z,102557.22
2023-01-27T16:33:27.895Z,102551.03
2023-01-27T16:36:06.286Z,102556.31
2023-01-27T16:38:39.338Z,102562.59
2023-01-27T16:41:22.539Z,102556.53
2023-01-27T16:43:54.936Z,102555.81
2023-01-27T16:46:34.222Z,102556.81
2023-01-27T16:49:05.792Z,102574.59
2023-01-27T16:51:35.220Z,102573.84
2023-01-27T16:54:19.620Z,102576.56
2023-01-27T16:56:52.759Z,102580.09
2023-01-27T16:59:27.611Z,102579.25
2023-01-27T17:02:02.948Z,102596.81
2023-01-27T17:04:33.371Z,102592.50
2023-01-27T17:07:09.899Z,102589.00
2023-01-27T17:09:43.834Z,102590.75
2023-01-27T17:12:31.407Z,102581.94
2023-01-27T17:15:01.784Z,102584.59
2023-01-27T17:17:36.311Z,102585.44
2023-01-27T17:20:08.852Z,102577.44
2023-01-27T17:22:42.129Z,102581.84
2023-01-27T17:25:17.987Z,102573.09
2023-01-27T17:27:51.712Z,102569.56
2023-01-27T17:30:28.319Z,102574.84
2023-01-27T17:33:00.007Z,102569.50
2023-01-27T17:35:33.126Z,102574.69
2023-01-27T17:38:15.484Z,102578.16
2023-01-27T17:40:46.992Z,102568.41
2023-01-27T17:43:32.023Z,102592.13
2023-01-27T17:46:20.630Z,102591.06
2023-01-27T17:48:56.069Z,102593.56
2023-01-27T17:51:28.248Z,102597.84
2023-01-27T17:53:59.552Z,102591.59
2023-01-27T17:56:33.080Z,102585.28
2023-01-27T17:59:09.279Z,102576.47
2023-01-27T18:01:38.525Z,102588.81
2023-01-27T18:04:08.666Z,102594.09
2023-01-27T18:06:38.597Z,102592.44
2023-01-27T18:09:20.351Z,102590.81
2023-01-27T18:12:02.600Z,102586.59
2023-01-27T18:14:36.597Z,102592.00
2023-01-27T18:17:07.859Z,102594.66
2023-01-27T18:19:36.235Z,102585.84
2023-01-27T18:22:14.052Z,102598.19
2023-01-27T18:24:51.727Z,102605.22
2023-01-27T18:27:30.234Z,102600.81
2023-01-27T18:30:13.128Z,102614.06
2023-01-27T18:32:44.682Z,102618.44
2023-01-27T18:35:29.686Z,102612.31
2023-01-27T18:38:01.735Z,102613.97
2023-01-27T18:40:34.788Z,102604.31
2023-01-27T18:43:06.212Z,102609.63
2023-01-27T18:45:35.932Z,102606.09
2023-01-27T18:48:10.426Z,102606.09
2023-01-27T18:50:45.486Z,102604.38
2023-01-27T18:53:19.363Z,102607.09
2023-01-27T18:55:48.195Z,102609.81
2023-01-27T18:58:17.984Z,102613.38
2023-01-27T19:00:51.741Z,102605.50
2023-01-27T19:03:24.315Z,102613.47
2023-01-27T19:05:52.786Z,102617.94
2023-01-27T19:08:24.300Z,102618.00
2023-01-27T19:10:53.696Z,102611.88
2023-01-27T19:13:22.077Z,102615.41
2023-01-27T19:15:55.695Z,102612.72
2023-01-27T19:18:29.388Z,102611.00
2023-01-27T19:20:59.546Z,102612.78
2023-01-27T19:23:29.239Z,102612.84
2023-01-27T19:26:04.896Z,102619.00
2023-01-27T19:28:36.955Z,102632.16
2023-01-27T19:31:08.077Z,102629.47
2023-01-27T19:33:38.647Z,102632.94
2023-01-27T19:36:22.517Z,102631.19
2023-01-27T19:38:57.178Z,102627.66
2023-01-27T19:41:25.868Z,102636.38
2023-01-27T19:43:54.604Z,102633.72
2023-01-27T19:46:24.814Z,102633.69
2023-01-27T19:48:54.920Z,102627.50
2023-01-27T19:51:24.206Z,102639.78
2023-01-27T19:53:52.564Z,102634.44
2023-01-27T19:56:24.708Z,102629.06
2023-01-27T19:58:54.920Z,102625.47
2023-01-27T20:01:29.021Z,102633.34
2023-01-27T20:04:00.369Z,102635.09
2023-01-27T20:06:32.584Z,102618.50
2023-01-27T20:09:04.200Z,102613.38
2023-01-27T20:11:39.282Z,102617.16
2023-01-27T20:14:13.705Z,102616.38
2023-01-27T20:16:44.341Z,102614.69
2023-01-27T20:19:16.003Z,102612.13
2023-01-27T20:21:46.153Z,102603.38
2023-01-27T20:24:17.571Z,102612.19
2023-01-27T20:26:47.139Z,102606.88
2023-01-27T20:29:15.950Z,102616.53
2023-01-27T20:31:46.851Z,102618.28
2023-01-27T20:34:15.232Z,102619.19
2023-01-27T20:36:43.601Z,102621.88
2023-01-27T20:39:12.556Z,102622.69
2023-01-27T20:41:41.016Z,102617.44
2023-01-27T20:44:13.577Z,102613.91
2023-01-27T20:46:42.246Z,102617.50
2023-01-27T20:49:11.991Z,102619.25
2023-01-27T20:51:40.441Z,102618.41
2023-01-27T20:54:09.269Z,102622.84
2023-01-27T20:56:37.747Z,102624.59
2023-01-27T20:59:06.450Z,102630.81
2023-01-27T21:01:35.321Z,102625.56
2023-01-27T21:04:03.702Z,102618.56
2023-01-27T21:06:33.595Z,102621.22
2023-01-27T21:09:02.019Z,102626.53
2023-01-27T21:11:30.927Z,102617.75
2023-01-27T21:14:00.288Z,102622.13
2023-01-27T21:16:33.033Z,102616.88
2023-01-27T21:19:02.619Z,102624.78
2023-01-27T21:21:33.747Z,102621.25
2023-01-27T21:24:02.599Z,102623.84
2023-01-27T21:26:32.751Z,102621.22
2023-01-27T21:29:01.333Z,102620.31
2023-01-27T21:31:30.652Z,102628.19
2023-01-27T21:34:01.896Z,102627.31
2023-01-27T21:36:30.984Z,102625.56
2023-01-27T21:39:02.609Z,102623.78
2023-01-27T21:41:48.929Z,102626.41
2023-01-27T21:44:37.672Z,102619.38
2023-01-27T21:47:08.048Z,102615.88
2023-01-27T21:49:59.421Z,102622.00
2023-01-27T21:52:33.211Z,102620.22
2023-01-27T21:55:05.138Z,102618.44
2023-01-27T21:57:34.179Z,102622.84
2023-01-27T22:00:02.580Z,102623.63
2023-01-27T22:02:31.266Z,102620.06
2023-01-27T22:05:00.059Z,102622.75
2023-01-27T22:07:34.927Z,102621.00
2023-01-27T22:10:05.975Z,102618.31
2023-01-27T22:12:34.733Z,102617.44
2023-01-27T22:15:03.241Z,102626.16
2023-01-27T22:17:31.567Z,102614.66
2023-01-27T22:19:59.988Z,102617.31
2023-01-27T22:22:29.687Z,102619.94
2023-01-27T22:25:01.173Z,102617.28
2023-01-27T22:27:30.940Z,102626.00
2023-01-27T22:30:00.247Z,102625.06
2023-01-27T22:32:29.285Z,102624.19
2023-01-27T22:35:04.464Z,102620.63
2023-01-27T22:37:34.295Z,102627.72
2023-01-27T22:40:02.832Z,102621.50
2023-01-27T22:42:32.924Z,102615.28
2023-01-27T22:45:01.380Z,102628.50
2023-01-27T22:47:29.662Z,102629.44
2023-01-27T22:50:01.094Z,102631.13
2023-01-27T22:52:29.454Z,102633.72
2023-01-27T22:55:00.012Z,102628.47
2023-01-27T22:57:31.775Z,102628.50
2023-01-27T23:00:00.757Z,102636.47
2023-01-27T23:02:29.947Z,102633.81
2023-01-27T23:04:59.768Z,102641.72
2023-01-27T23:07:31.003Z,102639.91
2023-01-27T23:10:00.716Z,102639.06
2023-01-27T23:12:30.827Z,102640.81
2023-01-27T23:15:03.612Z,102632.03
2023-01-27T23:17:31.944Z,102631.13
2023-01-27T23:20:00.483Z,102624.06
2023-01-27T23:22:29.276Z,102624.97
2023-01-27T23:25:00.409Z,102624.09
2023-01-27T23:27:29.543Z,102619.66
2023-01-27T23:30:01.169Z,102618.75
2023-01-27T23:32:29.950Z,102620.53
2023-01-27T23:34:59.039Z,102617.00
2023-01-27T23:37:27.573Z,102611.66
2023-01-27T23:39:56.722Z,102614.41
2023-01-27T23:42:29.978Z,102606.53
2023-01-27T23:45:00.631Z,102608.34
2023-01-27T23:47:30.605Z,102617.00
2023-01-27T23:50:00.298Z,102603.84
2023-01-27T23:52:30.499Z,102608.25
2023-01-27T23:54:59.717Z,102618.88
2023-01-27T23:57:29.236Z,102617.09
